Friars Point, Mississippi
Current Conditions -  °F | °C
As of 4:35 AM on Thursday 27 Nov 2014 (Local Time) from KCKM Reporting Station
Clear Clear  
Wind Chill: -1°   Ceiling: Unl
Heat Index:   Visibility: 10mi
Dew Point:   Wind: 10mph
Humidity: 81%   Direction: 320°NW
Pressure: 30.36"   Gusts: NA
Location:  34.37°N, 90.64°W
Report Text: KCKM 271035Z AUTO 32009KT 10SM CLR 03/00 A3036 RMK AO1
Loading
Personal Weather Stations






























Interactive Weather Map New forecast layout! Learn more

10-Day Weather Forecast

Advertisements
Track Severe Weather on mobile